Time;durP1;ratioP1;P1;durP2;ratioP2;P2;SDS_P1;SDS_P2;PMS_P1;PMS_P2;Temp;Humidity;BMP_temperature;BMP_pressure;BME280_temperature;BME280_humidity;BME280_pressure;Samples;Min_cycle;Max_cycle;Signal;HPM_P1;HPM_P2
2022/06/13 00:01:56;;;;;;;8.40;2.40;;;14.00;1.00;;;;;;5021814;28;20177;-78
2022/06/13 00:04:21;;;;;;;6.00;1.87;;;13.90;1.00;;;;;;5023216;28;20205;-77
2022/06/13 00:06:48;;;;;;;6.37;2.40;;;13.90;1.00;;;;;;5020969;28;20193;-77
2022/06/13 00:09:13;;;;;;;4.00;1.93;;;13.90;1.00;;;;;;5022991;28;20268;-78
2022/06/13 00:11:39;;;;;;;5.93;2.27;;;13.90;99.90;;;;;;5021314;28;20631;-78
2022/06/13 00:14:05;;;;;;;3.53;2.20;;;13.80;99.90;;;;;;5020551;28;20192;-78
2022/06/13 00:16:31;;;;;;;6.17;2.60;;;13.80;99.90;;;;;;5021174;28;20701;-77
2022/06/13 00:18:57;;;;;;;5.00;2.67;;;13.70;99.90;;;;;;5020863;28;20185;-78
2022/06/13 00:21:29;;;;;;;3.30;2.00;;;13.70;1.00;;;;;;5020678;28;20196;-77
2022/06/13 00:23:55;;;;;;;4.90;1.87;;;13.60;1.00;;;;;;5021727;28;20203;-77
2022/06/13 00:26:23;;;;;;;7.23;2.30;;;13.50;1.00;;;;;;5020556;28;20205;-78
2022/06/13 00:28:50;;;;;;;9.10;2.13;;;13.50;53.00;;;;;;5021004;28;20173;-78
2022/06/13 00:31:16;;;;;;;6.80;2.83;;;13.50;99.90;;;;;;5021568;28;20173;-78
2022/06/13 00:33:42;;;;;;;8.93;2.70;;;13.40;99.90;;;;;;5021398;28;20175;-78
2022/06/13 00:36:08;;;;;;;4.10;2.20;;;13.40;99.90;;;;;;5019402;28;20205;-77
2022/06/13 00:38:36;;;;;;;6.60;2.57;;;13.30;99.90;;;;;;5018748;28;20184;-78
2022/06/13 00:41:09;;;;;;;5.77;2.10;;;13.30;99.90;;;;;;5019569;28;20229;-77
2022/06/13 00:43:37;;;;;;;6.20;2.50;;;13.30;1.00;;;;;;5020731;28;20185;-77
2022/06/13 00:46:14;;;;;;;10.10;2.53;;;13.20;1.00;;;;;;5019461;28;20196;-77
2022/06/13 00:48:39;;;;;;;6.13;2.27;;;13.20;74.30;;;;;;5019077;28;20628;-78
2022/06/13 00:51:05;;;;;;;5.50;2.63;;;13.20;99.90;;;;;;5019463;28;20204;-78
2022/06/13 00:53:35;;;;;;;4.37;2.03;;;13.10;99.90;;;;;;5019104;28;20215;-77
2022/06/13 00:56:09;;;;;;;4.23;2.57;;;13.10;1.00;;;;;;5020653;28;20197;-78
2022/06/13 00:58:43;;;;;;;3.07;2.00;;;13.00;1.00;;;;;;5020769;28;20243;-78
2022/06/13 01:01:09;;;;;;;8.50;2.20;;;13.00;99.90;;;;;;5021247;28;20172;-78
2022/06/13 01:03:36;;;;;;;5.70;2.50;;;12.90;99.90;;;;;;5020350;28;20204;-78
2022/06/13 01:06:04;;;;;;;4.27;2.10;;;12.80;61.50;;;;;;5019983;28;20674;-78
2022/06/13 01:08:32;;;;;;;3.93;2.20;;;12.80;99.90;;;;;;5019876;28;20240;-77
2022/06/13 01:11:16;;;;;;;5.17;2.40;;;12.80;99.90;;;;;;5020098;28;20249;-78
2022/06/13 01:13:57;;;;;;;4.57;2.07;;;12.80;1.00;;;;;;5020966;28;20172;-78
2022/06/13 01:16:35;;;;;;;4.30;2.40;;;12.70;1.00;;;;;;5018845;28;20254;-78
2022/06/13 01:19:19;;;;;;;2.47;1.83;;;12.70;99.90;;;;;;5020144;28;20307;-77
2022/06/13 01:22:21;;;;;;;5.83;2.10;;;12.70;1.00;;;;;;5019373;28;20169;-78
2022/06/13 01:25:09;;;;;;;2.80;1.63;;;12.60;99.90;;;;;;5018408;28;20282;-78
2022/06/13 01:27:57;;;;;;;3.60;2.00;;;12.50;99.90;;;;;;5018684;28;20173;-78
2022/06/13 01:30:46;;;;;;;6.83;1.77;;;12.50;81.40;;;;;;5019012;28;20177;-77
2022/06/13 01:33:29;;;;;;;7.63;2.10;;;12.50;99.90;;;;;;5018407;28;20183;-78
2022/06/13 01:35:58;;;;;;;4.93;2.13;;;12.50;99.90;;;;;;5019152;28;20200;-77
2022/06/13 01:38:44;;;;;;;5.33;2.27;;;12.40;99.90;;;;;;5018661;28;20493;-78
2022/06/13 01:41:26;;;;;;;3.00;1.67;;;12.40;1.00;;;;;;5018367;28;20185;-77
2022/06/13 01:44:11;;;;;;;3.57;1.80;;;12.40;99.90;;;;;;5019741;28;20217;-78
2022/06/13 01:46:57;;;;;;;5.27;2.37;;;12.40;99.90;;;;;;5017538;28;20201;-77
2022/06/13 01:49:48;;;;;;;4.63;2.70;;;12.40;99.90;;;;;;5019088;28;20244;-78
2022/06/13 01:52:33;;;;;;;7.00;2.33;;;12.40;99.90;;;;;;5019413;28;20189;-77
2022/06/13 01:55:13;;;;;;;7.47;2.03;;;12.40;1.00;;;;;;5018748;28;20595;-77
2022/06/13 01:58:03;;;;;;;7.17;2.30;;;12.40;1.00;;;;;;5020227;28;20590;-78
2022/06/13 02:00:31;;;;;;;3.73;2.10;;;12.40;1.00;;;;;;5018341;28;20177;-77
2022/06/13 02:02:59;;;;;;;4.67;1.90;;;12.40;1.00;;;;;;5018880;28;20172;-78
2022/06/13 02:05:31;;;;;;;3.43;2.07;;;12.40;1.00;;;;;;5019935;28;20197;-77
2022/06/13 02:08:04;;;;;;;4.27;2.10;;;12.40;1.00;;;;;;5016589;28;20626;-78
2022/06/13 02:10:39;;;;;;;3.83;2.13;;;12.40;1.00;;;;;;5017665;28;20169;-78
2022/06/13 02:13:08;;;;;;;5.37;2.37;;;12.30;1.00;;;;;;5017029;28;20180;-78
2022/06/13 02:15:40;;;;;;;5.27;2.27;;;12.30;1.00;;;;;;5019363;28;20287;-78
2022/06/13 02:18:12;;;;;;;2.57;1.87;;;12.30;1.00;;;;;;5018368;28;20176;-77
2022/06/13 02:20:42;;;;;;;5.80;2.27;;;12.30;1.00;;;;;;5019559;28;20243;-78
2022/06/13 02:23:18;;;;;;;2.87;2.17;;;12.30;1.00;;;;;;5018911;28;20607;-77
2022/06/13 02:25:54;;;;;;;3.73;2.00;;;12.30;1.00;;;;;;5015967;28;20200;-77
2022/06/13 02:28:49;;;;;;;3.20;1.93;;;12.30;1.00;;;;;;5018250;28;20275;-77
2022/06/13 02:31:21;;;;;;;6.17;2.13;;;12.20;1.00;;;;;;5018429;28;20546;-78
2022/06/13 02:33:51;;;;;;;5.97;2.20;;;12.20;1.00;;;;;;5018272;28;20590;-77
2022/06/13 02:36:39;;;;;;;6.17;1.97;;;12.20;1.00;;;;;;5016468;28;20211;-76
2022/06/13 02:39:11;;;;;;;3.00;1.93;;;12.10;1.00;;;;;;5016788;28;20176;-77
2022/06/13 02:41:43;;;;;;;4.83;2.37;;;12.10;6.50;;;;;;5016904;28;20623;-78
2022/06/13 02:44:21;;;;;;;4.10;1.87;;;12.10;1.00;;;;;;5017228;28;20694;-78
2022/06/13 02:46:55;;;;;;;4.13;2.10;;;12.10;1.00;;;;;;5015329;28;20200;-77
2022/06/13 02:49:32;;;;;;;10.37;2.00;;;12.10;1.00;;;;;;5017537;28;20175;-79
2022/06/13 02:52:11;;;;;;;3.90;2.40;;;12.00;1.00;;;;;;5019184;28;20157;-78
2022/06/13 02:54:46;;;;;;;4.47;2.10;;;12.00;99.90;;;;;;5018192;28;20192;-78
2022/06/13 02:57:35;;;;;;;4.00;2.20;;;12.00;99.90;;;;;;5018750;28;20172;-77
2022/06/13 03:00:21;;;;;;;5.90;2.10;;;12.00;99.90;;;;;;5017404;28;20173;-77
2022/06/13 03:03:11;;;;;;;5.10;2.23;;;12.00;99.90;;;;;;5017091;28;20180;-77
2022/06/13 03:05:37;;;;;;;5.20;2.20;;;12.00;99.90;;;;;;5017416;28;20247;-77
2022/06/13 03:08:29;;;;;;;5.60;2.10;;;12.00;99.90;;;;;;5016874;28;20169;-78
2022/06/13 03:10:59;;;;;;;5.17;2.50;;;12.00;99.90;;;;;;5016357;28;20638;-78
2022/06/13 03:13:50;;;;;;;3.73;2.00;;;12.00;99.90;;;;;;5017202;28;20169;-77
2022/06/13 03:16:47;;;;;;;6.23;2.50;;;12.00;99.90;;;;;;5017603;28;20215;-77
2022/06/13 03:19:21;;;;;;;3.40;1.77;;;12.10;99.90;;;;;;5016601;28;20165;-78
2022/06/13 03:21:59;;;;;;;3.60;2.07;;;12.10;99.90;;;;;;5017201;28;20230;-77
2022/06/13 03:24:59;;;;;;;3.27;2.00;;;12.10;99.90;;;;;;5016374;28;20199;-77
2022/06/13 03:27:32;;;;;;;4.03;2.07;;;12.10;99.90;;;;;;4994523;28;20605;-78
2022/06/13 03:30:22;;;;;;;3.00;2.17;;;12.20;99.90;;;;;;5017112;28;20172;-77
2022/06/13 03:35:51;;;;;;;5.67;2.17;;;12.10;99.90;;;;;;5018293;28;20555;-77
2022/06/13 03:38:27;;;;;;;9.70;2.07;;;12.10;99.90;;;;;;5018342;28;20172;-78
2022/06/13 03:40:57;;;;;;;4.33;1.90;;;12.10;99.90;;;;;;5018156;28;20618;-77
2022/06/13 03:43:28;;;;;;;5.27;2.27;;;12.20;99.90;;;;;;5017041;28;20203;-77
2022/06/13 03:46:01;;;;;;;2.87;1.93;;;12.20;99.90;;;;;;5016646;28;20656;-78
2022/06/13 03:48:35;;;;;;;2.83;1.87;;;12.20;99.90;;;;;;5018290;28;20159;-78
2022/06/13 03:51:20;;;;;;;5.00;2.07;;;12.20;99.90;;;;;;5018354;28;20162;-78
2022/06/13 03:53:48;;;;;;;4.93;2.40;;;12.20;99.90;;;;;;5016698;28;20658;-77
2022/06/13 03:56:20;;;;;;;4.77;2.30;;;12.20;99.90;;;;;;5018185;28;20197;-77
2022/06/13 03:58:52;;;;;;;3.97;2.43;;;12.20;99.90;;;;;;5017954;28;20554;-78
2022/06/13 04:01:23;;;;;;;5.07;2.13;;;12.20;99.90;;;;;;5019069;28;20246;-78
2022/06/13 04:03:49;;;;;;;4.27;2.33;;;12.20;99.90;;;;;;5022407;28;20197;-78
2022/06/13 04:06:34;;;;;;;6.70;2.57;;;12.30;99.90;;;;;;5022395;28;20216;-78
2022/06/13 04:09:02;;;;;;;4.00;1.90;;;12.30;99.90;;;;;;5023528;28;20620;-79
2022/06/13 04:11:52;;;;;;;6.80;2.20;;;12.30;99.90;;;;;;5021468;28;20169;-78
2022/06/13 04:15:06;;;;;;;4.87;2.43;;;12.30;99.90;;;;;;5019457;28;20169;-79
2022/06/13 04:17:58;;;;;;;7.40;2.43;;;12.40;99.90;;;;;;5014901;28;20196;-78
2022/06/13 04:20:48;;;;;;;7.93;2.60;;;12.40;99.90;;;;;;5022342;28;20257;-78
2022/06/13 04:23:22;;;;;;;7.30;2.67;;;12.50;99.90;;;;;;5033718;23;20337;-77
2022/06/13 04:26:15;;;;;;;4.70;2.83;;;12.50;99.90;;;;;;4995575;28;20174;-75
2022/06/13 04:28:58;;;;;;;8.57;3.23;;;12.60;99.90;;;;;;4996923;28;20230;-73
2022/06/13 04:31:25;;;;;;;13.23;3.67;;;12.70;99.90;;;;;;4996636;28;20158;-73
2022/06/13 04:34:14;;;;;;;9.60;3.60;;;12.70;99.90;;;;;;4996568;28;20197;-74
2022/06/13 04:36:42;;;;;;;9.20;3.80;;;12.80;99.90;;;;;;4997066;28;20178;-74
2022/06/13 04:39:09;;;;;;;6.47;3.50;;;12.80;99.90;;;;;;4996181;28;20185;-74
2022/06/13 04:41:39;;;;;;;8.73;3.30;;;12.90;99.90;;;;;;4995006;28;20181;-75
2022/06/13 04:44:05;;;;;;;10.17;4.00;;;12.90;99.90;;;;;;4996155;28;20197;-74
2022/06/13 04:46:34;;;;;;;10.70;4.23;;;12.90;99.90;;;;;;4996207;28;20174;-74
2022/06/13 04:49:05;;;;;;;11.37;4.57;;;12.90;99.90;;;;;;4996060;28;20170;-75
2022/06/13 04:51:40;;;;;;;11.33;5.07;;;13.00;99.90;;;;;;4994854;28;20192;-74
2022/06/13 04:54:09;;;;;;;15.90;6.10;;;13.10;99.90;;;;;;4996385;28;20201;-74
2022/06/13 04:56:35;;;;;;;13.30;5.27;;;13.10;99.90;;;;;;4995130;28;20528;-74
2022/06/13 04:59:01;;;;;;;8.63;4.57;;;13.10;99.90;;;;;;4994807;28;20268;-74
2022/06/13 05:01:36;;;;;;;15.70;5.57;;;13.20;99.90;;;;;;4994768;28;20656;-74
2022/06/13 05:04:09;;;;;;;13.60;5.17;;;13.30;99.90;;;;;;4996052;28;20204;-74
2022/06/13 05:06:42;;;;;;;14.30;5.00;;;13.30;99.90;;;;;;4996290;28;20170;-74
2022/06/13 05:09:10;;;;;;;10.33;4.43;;;13.30;99.90;;;;;;4996319;28;20158;-74
2022/06/13 05:11:48;;;;;;;11.50;4.40;;;13.40;99.90;;;;;;4995510;28;20182;-74
2022/06/13 05:14:34;;;;;;;11.83;4.27;;;13.40;99.90;;;;;;4994939;28;20198;-74
2022/06/13 05:17:24;;;;;;;7.37;3.73;;;13.40;99.90;;;;;;4995959;28;20154;-74
2022/06/13 05:20:25;;;;;;;9.63;3.97;;;13.40;99.90;;;;;;4994633;28;20185;-74
2022/06/13 05:23:01;;;;;;;9.70;3.73;;;13.40;99.90;;;;;;4993500;28;20217;-74
2022/06/13 05:25:39;;;;;;;7.03;3.43;;;13.40;99.90;;;;;;4995850;28;20165;-74
2022/06/13 05:28:04;;;;;;;11.63;3.50;;;13.50;99.90;;;;;;4995690;28;20165;-74
2022/06/13 05:30:30;;;;;;;6.90;3.40;;;13.50;99.90;;;;;;4994129;28;20648;-74
2022/06/13 05:32:56;;;;;;;9.53;3.33;;;13.60;99.90;;;;;;4995388;28;20201;-73
2022/06/13 05:35:26;;;;;;;8.73;3.27;;;13.60;99.90;;;;;;4995450;28;20257;-73
2022/06/13 05:37:54;;;;;;;12.00;3.17;;;13.60;99.90;;;;;;4994336;28;20593;-73
2022/06/13 05:40:22;;;;;;;6.43;3.40;;;13.60;99.90;;;;;;4995301;28;20223;-73
2022/06/13 05:42:48;;;;;;;6.20;2.83;;;13.70;99.90;;;;;;4993817;28;20197;-73
2022/06/13 05:45:16;;;;;;;7.60;2.80;;;13.70;99.90;;;;;;4995414;28;20237;-73
2022/06/13 05:47:43;;;;;;;8.30;3.10;;;13.70;99.90;;;;;;4995056;28;20165;-73
2022/06/13 05:50:14;;;;;;;7.07;2.77;;;13.70;99.90;;;;;;4995303;28;20177;-73
2022/06/13 05:52:41;;;;;;;7.90;3.00;;;13.80;99.90;;;;;;4995075;28;20190;-74
2022/06/13 05:55:07;;;;;;;6.17;3.17;;;13.90;99.90;;;;;;4995412;28;20192;-74
2022/06/13 05:57:32;;;;;;;9.83;3.20;;;13.90;99.90;;;;;;4995211;28;20181;-74
2022/06/13 05:59:58;;;;;;;17.20;4.00;;;14.00;99.90;;;;;;4993704;28;20747;-74
2022/06/13 06:02:23;;;;;;;11.53;3.83;;;14.00;99.90;;;;;;4995164;28;20204;-74
2022/06/13 06:04:49;;;;;;;9.17;4.13;;;14.10;99.90;;;;;;4994795;28;20201;-74
2022/06/13 06:07:15;;;;;;;8.50;4.57;;;14.10;99.90;;;;;;4994831;28;20648;-74
2022/06/13 06:09:40;;;;;;;11.13;4.40;;;14.00;99.90;;;;;;4995854;28;20177;-74
2022/06/13 06:12:06;;;;;;;15.43;5.13;;;14.00;99.90;;;;;;4995249;28;20618;-73
2022/06/13 06:14:31;;;;;;;7.83;4.90;;;14.00;99.90;;;;;;4993599;28;20181;-74
2022/06/13 06:16:57;;;;;;;12.03;5.67;;;14.10;99.90;;;;;;4994944;28;20181;-74
2022/06/13 06:19:22;;;;;;;15.33;6.13;;;14.20;99.90;;;;;;4994728;28;20599;-74
2022/06/13 06:21:48;;;;;;;16.53;5.87;;;14.20;99.90;;;;;;4995041;28;20240;-74
2022/06/13 06:24:13;;;;;;;10.83;5.53;;;14.10;99.90;;;;;;4993511;28;20688;-74
2022/06/13 06:26:39;;;;;;;14.97;6.23;;;14.20;99.90;;;;;;4994808;28;20181;-74
2022/06/13 06:29:05;;;;;;;11.37;5.67;;;14.20;99.90;;;;;;4995066;28;20185;-76
2022/06/13 06:31:32;;;;;;;11.70;5.97;;;14.30;99.90;;;;;;4995218;28;20180;-75
2022/06/13 06:33:57;;;;;;;17.30;6.07;;;14.40;99.90;;;;;;4993810;28;20201;-76
2022/06/13 06:36:23;;;;;;;15.87;6.83;;;14.40;99.90;;;;;;4995120;28;20188;-74
2022/06/13 06:38:48;;;;;;;16.70;6.67;;;14.40;99.90;;;;;;4995127;28;20184;-74
2022/06/13 06:41:14;;;;;;;18.10;6.87;;;14.50;99.90;;;;;;4994782;28;20349;-75
2022/06/13 06:43:40;;;;;;;15.97;6.20;;;14.50;99.90;;;;;;4994386;28;20206;-74
2022/06/13 06:46:05;;;;;;;11.83;6.07;;;14.50;99.90;;;;;;4994494;28;20174;-75
2022/06/13 06:48:31;;;;;;;14.60;6.33;;;14.60;99.90;;;;;;4993265;28;20181;-75
2022/06/13 06:50:57;;;;;;;17.60;6.83;;;14.60;99.90;;;;;;4994465;28;20663;-75
2022/06/13 06:53:25;;;;;;;16.57;7.63;;;14.60;99.90;;;;;;4994559;28;20190;-74
2022/06/13 07:01:21;;;;;;;17.33;7.53;;;14.80;99.90;;;;;;4995317;28;20252;-75
2022/06/13 07:03:47;;;;;;;17.07;8.53;;;14.90;99.90;;;;;;4992971;28;20216;-75
2022/06/13 07:06:14;;;;;;;16.40;8.40;;;14.90;99.90;;;;;;4994800;28;20589;-75
2022/06/13 07:08:41;;;;;;;16.43;7.57;;;14.90;99.90;;;;;;4993143;28;20181;-75
2022/06/13 07:13:56;;;;;;;18.87;8.97;;;15.00;99.90;;;;;;4994346;28;20205;-75
2022/06/13 07:16:21;;;;;;;16.93;8.77;;;15.00;99.90;;;;;;4994326;28;20178;-73
2022/06/13 07:18:47;;;;;;;19.43;8.33;;;15.10;99.90;;;;;;4992908;28;20189;-73
2022/06/13 07:21:13;;;;;;;16.50;8.57;;;15.20;99.90;;;;;;4994247;28;20177;-74
2022/06/13 07:23:39;;;;;;;19.73;8.03;;;15.30;99.90;;;;;;4994081;28;20261;-74
2022/06/13 07:26:05;;;;;;;16.07;8.30;;;15.40;99.90;;;;;;4992992;28;20541;-75
2022/06/13 07:28:30;;;;;;;19.97;9.27;;;15.40;99.90;;;;;;4994381;28;20170;-75
2022/06/13 07:30:56;;;;;;;20.07;9.90;;;15.50;99.90;;;;;;4994534;28;20249;-75
2022/06/13 07:33:23;;;;;;;21.90;12.53;;;15.60;99.90;;;;;;4994185;28;20634;-74
2022/06/13 07:35:48;;;;;;;23.83;11.67;;;15.50;99.90;;;;;;4993938;28;20173;-76
2022/06/13 07:38:17;;;;;;;20.13;10.90;;;15.60;99.90;;;;;;4998704;28;20235;-75
2022/06/13 07:40:50;;;;;;;21.87;10.90;;;15.60;99.90;;;;;;4997522;28;20264;-75
2022/06/13 07:43:31;;;;;;;19.57;11.43;;;15.70;99.90;;;;;;4998610;28;20194;-75
2022/06/13 07:46:00;;;;;;;19.63;9.87;;;15.70;99.90;;;;;;4998168;28;20192;-75
2022/06/13 07:48:27;;;;;;;19.03;9.97;;;15.70;99.90;;;;;;4996347;28;20185;-76
2022/06/13 07:50:53;;;;;;;21.77;9.60;;;15.70;99.90;;;;;;4998207;28;20177;-75
2022/06/13 07:53:18;;;;;;;15.80;9.10;;;15.80;99.90;;;;;;4997963;28;20189;-75
2022/06/13 07:55:44;;;;;;;18.33;9.27;;;15.90;99.90;;;;;;4996818;28;20204;-75
2022/06/13 07:58:19;;;;;;;14.77;8.53;;;15.90;99.90;;;;;;4998208;28;20736;-75
2022/06/13 08:00:46;;;;;;;19.50;8.80;;;15.90;99.90;;;;;;4998025;28;20197;-75
2022/06/13 08:03:23;;;;;;;12.83;7.17;;;16.00;99.90;;;;;;4998200;28;20202;-75
2022/06/13 08:05:50;;;;;;;15.03;7.67;;;16.00;99.90;;;;;;4996343;28;20158;-75
2022/06/13 08:08:16;;;;;;;15.53;7.70;;;16.00;99.90;;;;;;4997243;28;20197;-75
2022/06/13 08:10:42;;;;;;;13.47;7.63;;;16.10;99.90;;;;;;4997341;28;20251;-74
2022/06/13 08:13:11;;;;;;;16.50;7.73;;;16.20;99.90;;;;;;4997266;28;20190;-75
2022/06/13 08:15:36;;;;;;;15.67;7.80;;;16.30;99.90;;;;;;4996999;28;20178;-75
2022/06/13 08:18:02;;;;;;;11.20;7.27;;;16.30;99.90;;;;;;4995724;28;20184;-75
2022/06/13 08:20:28;;;;;;;15.57;6.83;;;16.40;99.90;;;;;;4996983;28;20186;-75
2022/06/13 08:22:55;;;;;;;14.80;6.97;;;16.60;99.90;;;;;;4996837;28;20573;-75
2022/06/13 08:25:27;;;;;;;17.70;6.87;;;16.70;99.90;;;;;;4997315;28;20624;-75
2022/06/13 08:27:54;;;;;;;16.53;6.37;;;16.90;1.00;;;;;;4997263;28;20154;-75
2022/06/13 08:30:20;;;;;;;14.43;6.63;;;17.00;99.90;;;;;;4997662;28;20562;-76
2022/06/13 08:32:45;;;;;;;17.77;6.63;;;17.00;1.00;;;;;;4997376;28;20194;-74
2022/06/13 08:35:12;;;;;;;10.90;5.27;;;17.10;99.90;;;;;;4996330;28;20178;-75
2022/06/13 08:37:37;;;;;;;10.80;6.10;;;17.10;99.90;;;;;;4996233;28;20181;-75
2022/06/13 08:40:04;;;;;;;14.27;5.70;;;17.20;55.80;;;;;;4995595;28;20189;-75
2022/06/13 08:42:55;;;;;;;13.70;4.70;;;17.20;1.00;;;;;;4996796;28;20193;-75
2022/06/13 08:45:30;;;;;;;12.87;4.83;;;17.20;99.90;;;;;;4997327;28;20192;-75
2022/06/13 08:48:07;;;;;;;9.03;4.10;;;17.20;1.00;;;;;;4997093;28;20572;-75
2022/06/13 08:50:50;;;;;;;7.50;4.10;;;17.20;6.40;;;;;;4996910;28;20354;-75
2022/06/13 08:53:21;;;;;;;10.10;4.60;;;17.20;1.00;;;;;;4997170;28;20289;-75
2022/06/13 08:55:58;;;;;;;10.57;4.57;;;17.20;1.00;;;;;;4997562;28;20640;-75
2022/06/13 08:58:36;;;;;;;8.20;4.00;;;17.10;1.00;;;;;;4996995;28;20153;-75
2022/06/13 09:01:17;;;;;;;11.97;3.73;;;17.10;1.00;;;;;;4997497;28;20562;-76
2022/06/13 09:04:10;;;;;;;12.03;4.53;;;17.10;18.70;;;;;;4995301;28;20212;-75
2022/06/13 09:06:53;;;;;;;14.23;4.97;;;17.10;99.90;;;;;;4996811;28;20208;-75
2022/06/13 09:09:19;;;;;;;11.17;5.07;;;17.10;99.90;;;;;;4996912;28;20639;-75
2022/06/13 09:12:02;;;;;;;10.60;4.60;;;17.30;1.00;;;;;;4997121;28;20173;-74
2022/06/13 09:14:36;;;;;;;11.80;3.97;;;17.20;40.10;;;;;;4995433;28;20169;-75
2022/06/13 09:17:25;;;;;;;12.87;4.07;;;17.20;99.90;;;;;;4997337;28;20220;-75
2022/06/13 09:20:10;;;;;;;9.40;4.07;;;17.30;99.90;;;;;;4994589;28;20184;-76
2022/06/13 09:22:43;;;;;;;10.50;3.80;;;17.30;99.90;;;;;;4995537;28;20725;-75
2022/06/13 09:25:16;;;;;;;8.87;4.07;;;17.40;1.00;;;;;;4995826;28;20597;-75
2022/06/13 09:28:00;;;;;;;10.57;3.57;;;17.40;99.90;;;;;;4994549;28;20628;-75
2022/06/13 09:30:34;;;;;;;9.90;4.00;;;17.40;1.00;;;;;;4995894;28;20158;-77
2022/06/13 09:33:08;;;;;;;14.00;4.30;;;17.40;99.90;;;;;;4995475;28;20194;-74
2022/06/13 09:35:42;;;;;;;12.00;3.60;;;17.60;1.00;;;;;;4994476;28;20162;-75
2022/06/13 09:38:26;;;;;;;6.93;3.43;;;17.70;1.00;;;;;;4996030;28;20165;-75
2022/06/13 09:41:23;;;;;;;16.80;5.33;;;17.90;99.90;;;;;;4994269;28;20257;-75
2022/06/13 09:44:15;;;;;;;10.70;3.50;;;18.00;1.00;;;;;;4995239;28;20208;-75
2022/06/13 09:46:46;;;;;;;11.87;4.77;;;18.10;1.00;;;;;;4995554;28;20621;-75
2022/06/13 09:49:22;;;;;;;12.80;4.70;;;18.00;1.00;;;;;;4995622;28;20707;-74
2022/06/13 09:52:02;;;;;;;11.67;3.60;;;17.90;1.00;;;;;;4995187;28;20185;-74
2022/06/13 09:55:05;;;;;;;11.70;4.07;;;17.90;1.00;;;;;;4995089;28;20166;-75
2022/06/13 09:57:54;;;;;;;5.87;2.57;;;17.90;1.00;;;;;;4995137;28;20281;-74
2022/06/13 10:00:55;;;;;;;5.97;2.60;;;18.10;99.90;;;;;;4994862;28;20648;-76
2022/06/13 10:03:30;;;;;;;6.87;2.70;;;18.10;1.00;;;;;;4993501;28;20586;-76
2022/06/13 10:06:08;;;;;;;6.67;2.70;;;18.10;99.90;;;;;;4993540;28;20591;-75
2022/06/13 10:08:50;;;;;;;10.07;2.70;;;18.10;1.00;;;;;;4993690;28;20249;-75
2022/06/13 10:11:46;;;;;;;8.17;3.00;;;18.00;99.90;;;;;;4995177;28;20162;-75
2022/06/13 10:14:43;;;;;;;11.90;2.80;;;17.90;1.00;;;;;;4994845;28;20709;-75
2022/06/13 10:17:17;;;;;;;8.00;3.10;;;17.90;1.00;;;;;;4995257;28;20166;-74
2022/06/13 10:20:03;;;;;;;6.27;2.37;;;17.80;1.00;;;;;;4994747;28;20168;-75
2022/06/13 10:22:52;;;;;;;6.00;2.40;;;17.90;99.90;;;;;;5025977;23;20623;-79
2022/06/13 10:25:27;;;;;;;11.07;3.03;;;18.00;1.00;;;;;;5053857;28;20369;-79
2022/06/13 10:28:17;;;;;;;8.33;2.60;;;18.20;1.00;;;;;;5055130;28;20214;-79
2022/06/13 10:31:01;;;;;;;9.33;2.70;;;18.30;1.00;;;;;;5038526;28;20543;-78
2022/06/13 10:33:35;;;;;;;6.33;2.40;;;18.40;1.00;;;;;;5055202;28;20203;-79
2022/06/13 10:36:34;;;;;;;5.77;2.30;;;18.60;1.00;;;;;;5039601;28;20566;-79
2022/06/13 10:39:07;;;;;;;10.20;1.80;;;18.60;99.90;;;;;;5038240;28;20686;-80
2022/06/13 10:41:37;;;;;;;7.87;2.00;;;18.70;99.90;;;;;;5037102;28;20245;-80
2022/06/13 10:44:06;;;;;;;7.07;2.33;;;18.80;99.90;;;;;;5053867;28;20216;-79
2022/06/13 10:46:32;;;;;;;6.43;2.00;;;18.90;1.00;;;;;;5039438;28;20168;-79
2022/06/13 10:49:28;;;;;;;3.40;1.37;;;18.90;99.90;;;;;;5037351;28;20542;-79
2022/06/13 10:51:59;;;;;;;6.70;1.90;;;18.80;17.60;;;;;;5038127;28;20156;-79
2022/06/13 10:54:32;;;;;;;4.67;1.30;;;19.00;15.50;;;;;;5038259;28;20192;-79
2022/06/13 10:57:06;;;;;;;5.30;1.20;;;19.10;99.90;;;;;;5038699;28;20171;-79
2022/06/13 10:59:36;;;;;;;4.10;1.37;;;19.40;1.00;;;;;;5039522;28;20188;-80
2022/06/13 11:02:16;;;;;;;5.97;1.93;;;19.50;99.90;;;;;;5041051;28;20171;-79
2022/06/13 11:04:41;;;;;;;8.57;1.80;;;19.60;1.00;;;;;;5039756;28;20194;-79
2022/06/13 11:07:19;;;;;;;5.33;1.47;;;19.60;56.30;;;;;;5039409;28;20232;-80
2022/06/13 11:09:56;;;;;;;4.60;1.47;;;19.50;1.00;;;;;;5038108;28;20163;-79
2022/06/13 11:12:27;;;;;;;2.73;1.50;;;19.20;1.00;;;;;;5053232;28;20172;-79
2022/06/13 11:23:27;;;;;;;4.87;1.47;;;18.80;99.90;;;;;;5038602;28;20711;-79
2022/06/13 11:25:57;;;;;;;3.70;1.27;;;19.00;1.00;;;;;;5037625;28;20219;-79
2022/06/13 11:28:27;;;;;;;2.67;1.30;;;19.00;99.90;;;;;;5037482;28;20195;-79
2022/06/13 11:31:08;;;;;;;6.93;1.57;;;19.10;1.00;;;;;;5053271;28;20176;-79
2022/06/13 11:33:40;;;;;;;1.80;0.93;;;19.30;1.00;;;;;;5037879;28;20558;-79
2022/06/13 11:36:17;;;;;;;2.40;1.40;;;19.50;1.00;;;;;;5036771;28;20168;-79
2022/06/13 11:38:56;;;;;;;6.60;1.53;;;19.50;1.00;;;;;;5052132;28;20686;-79
2022/06/13 11:41:24;;;;;;;4.87;1.27;;;19.70;1.00;;;;;;5037291;28;20230;-78
2022/06/13 11:44:00;;;;;;;6.17;1.43;;;19.70;1.00;;;;;;5037779;28;20204;-79
2022/06/13 11:46:37;;;;;;;3.97;1.20;;;19.60;1.00;;;;;;5053176;28;20180;-78
2022/06/13 11:49:14;;;;;;;4.03;0.90;;;19.40;1.00;;;;;;5038048;28;20180;-79
2022/06/13 11:51:48;;;;;;;2.67;1.00;;;19.40;1.00;;;;;;5037988;28;20183;-78
2022/06/13 11:54:29;;;;;;;2.10;0.80;;;19.50;1.00;;;;;;5039088;28;20721;-79
2022/06/13 11:57:16;;;;;;;3.60;1.00;;;19.70;1.00;;;;;;5037149;28;20720;-79
2022/06/13 11:59:53;;;;;;;3.10;1.00;;;19.80;99.90;;;;;;5052700;28;20176;-78
2022/06/13 12:02:25;;;;;;;1.70;0.80;;;19.80;99.90;;;;;;5035280;28;20169;-77
2022/06/13 12:04:55;;;;;;;2.60;0.63;;;19.90;99.90;;;;;;5033560;28;20181;-78
2022/06/13 12:07:29;;;;;;;3.03;0.70;;;20.10;99.90;;;;;;5034798;28;20160;-78
2022/06/13 12:09:59;;;;;;;2.83;0.70;;;20.10;99.90;;;;;;5033720;28;20168;-79
2022/06/13 12:12:40;;;;;;;2.67;0.70;;;20.20;99.90;;;;;;5033966;28;20196;-78
2022/06/13 12:15:10;;;;;;;2.93;0.63;;;20.10;49.90;;;;;;5049323;28;20524;-78
2022/06/13 12:17:43;;;;;;;1.33;0.60;;;20.00;94.00;;;;;;5033771;28;20176;-78
2022/06/13 12:20:17;;;;;;;3.10;1.00;;;20.10;99.90;;;;;;5034188;28;20179;-79
2022/06/13 12:22:52;;;;;;;2.90;1.03;;;20.30;99.90;;;;;;5036253;28;20205;-79
2022/06/13 12:25:26;;;;;;;4.07;0.60;;;20.30;99.90;;;;;;5037542;28;20180;-78
2022/06/13 12:28:06;;;;;;;4.20;0.87;;;20.50;99.90;;;;;;5036196;28;20219;-78
2022/06/13 12:30:37;;;;;;;4.77;0.93;;;20.30;99.90;;;;;;5038734;28;20180;-77
2022/06/13 12:33:26;;;;;;;1.70;0.90;;;20.30;99.90;;;;;;5039488;28;20192;-78
2022/06/13 12:36:12;;;;;;;1.30;0.60;;;20.20;1.00;;;;;;5039443;28;20591;-79
2022/06/13 12:39:15;;;;;;;2.77;1.00;;;20.20;1.00;;;;;;5054005;28;20180;-77
2022/06/13 12:42:02;;;;;;;4.17;0.80;;;20.10;99.90;;;;;;5053140;28;20226;-78
2022/06/13 12:44:43;;;;;;;1.90;1.00;;;20.10;99.90;;;;;;5038338;28;20346;-77
2022/06/13 12:47:23;;;;;;;2.70;0.80;;;20.00;99.90;;;;;;5037906;28;20149;-77
2022/06/13 12:50:21;;;;;;;4.63;0.80;;;20.00;99.90;;;;;;5052808;28;20164;-78
2022/06/13 12:52:52;;;;;;;2.27;0.87;;;20.10;99.90;;;;;;5037423;28;20412;-78
2022/06/13 12:55:35;;;;;;;2.50;0.77;;;20.30;99.90;;;;;;5037494;28;20184;-78
2022/06/13 12:58:31;;;;;;;1.27;0.83;;;20.30;64.70;;;;;;5035574;28;20716;-77
2022/06/13 13:01:02;;;;;;;3.60;0.90;;;20.00;75.70;;;;;;5051945;28;20172;-77
2022/06/13 13:03:49;;;;;;;1.77;0.80;;;20.10;94.40;;;;;;5051321;28;20330;-77
2022/06/13 13:06:39;;;;;;;1.77;0.70;;;20.20;95.80;;;;;;5036533;28;20212;-77
2022/06/13 13:09:30;;;;;;;4.00;0.87;;;20.20;99.90;;;;;;5036379;28;20153;-77
2022/06/13 13:11:59;;;;;;;4.40;1.03;;;20.20;99.90;;;;;;5008227;28;20187;-78
2022/06/13 13:15:10;;;;;;;4.47;0.87;;;20.20;99.90;;;;;;5051411;28;20207;-78
2022/06/13 13:17:46;;;;;;;1.87;0.80;;;20.30;99.90;;;;;;5036265;28;20267;-79
2022/06/13 13:20:26;;;;;;;0.93;0.70;;;20.10;99.90;;;;;;5039098;28;20234;-80
2022/06/13 13:23:20;;;;;;;1.63;0.80;;;20.00;99.90;;;;;;5053933;28;20215;-79
2022/06/13 13:26:03;;;;;;;2.57;0.60;;;19.90;99.90;;;;;;5040406;28;20179;-79
2022/06/13 13:29:01;;;;;;;5.10;1.13;;;20.00;99.90;;;;;;5040153;28;20191;-78
2022/06/13 13:31:43;;;;;;;4.20;1.03;;;20.00;1.00;;;;;;5035376;28;20188;-79
2022/06/13 13:34:34;;;;;;;2.07;0.70;;;20.10;14.00;;;;;;5053007;28;20196;-78
2022/06/13 13:37:19;;;;;;;1.77;0.80;;;20.30;59.00;;;;;;5038956;28;20622;-78
2022/06/13 13:40:06;;;;;;;2.77;0.63;;;20.70;1.00;;;;;;5038823;28;20525;-78
2022/06/13 13:42:47;;;;;;;3.70;0.70;;;20.70;1.00;;;;;;5038872;28;20192;-80
2022/06/13 13:45:21;;;;;;;1.73;0.80;;;20.90;1.00;;;;;;5038120;28;20286;-78
2022/06/13 13:47:50;;;;;;;2.10;0.67;;;21.00;1.00;;;;;;5037738;28;20498;-78